sensor_id;sensor_type;location;lat;lon;timestamp;temperature;humidity
57564;DHT22;43400;45.926;6.724;2022-11-25T00:00:19;5.60;98.00
57564;DHT22;43400;45.926;6.724;2022-11-25T00:02:50;5.50;99.30
57564;DHT22;43400;45.926;6.724;2022-11-25T00:05:24;5.50;99.40
57564;DHT22;43400;45.926;6.724;2022-11-25T00:07:57;5.50;99.20
57564;DHT22;43400;45.926;6.724;2022-11-25T00:10:29;5.40;99.10
57564;DHT22;43400;45.926;6.724;2022-11-25T00:13:01;5.40;99.60
57564;DHT22;43400;45.926;6.724;2022-11-25T00:15:33;5.40;99.90
57564;DHT22;43400;45.926;6.724;2022-11-25T00:18:05;5.40;99.90
57564;DHT22;43400;45.926;6.724;2022-11-25T00:20:37;5.40;99.90
57564;DHT22;43400;45.926;6.724;2022-11-25T00:23:11;5.40;99.90
57564;DHT22;43400;45.926;6.724;2022-11-25T00:25:43;5.40;99.90
57564;DHT22;43400;45.926;6.724;2022-11-25T00:28:16;5.40;99.50
57564;DHT22;43400;45.926;6.724;2022-11-25T00:30:48;5.40;99.50
57564;DHT22;43400;45.926;6.724;2022-11-25T00:33:21;5.30;99.90
57564;DHT22;43400;45.926;6.724;2022-11-25T00:35:53;5.40;99.00
57564;DHT22;43400;45.926;6.724;2022-11-25T00:38:25;5.40;98.50
57564;DHT22;43400;45.926;6.724;2022-11-25T00:40:57;5.40;98.80
57564;DHT22;43400;45.926;6.724;2022-11-25T00:43:29;5.40;99.10
57564;DHT22;43400;45.926;6.724;2022-11-25T00:46:01;5.40;99.00
57564;DHT22;43400;45.926;6.724;2022-11-25T00:48:34;5.40;98.60
57564;DHT22;43400;45.926;6.724;2022-11-25T00:51:05;5.30;98.90
57564;DHT22;43400;45.926;6.724;2022-11-25T00:53:37;5.30;99.10
57564;DHT22;43400;45.926;6.724;2022-11-25T00:56:09;5.40;99.40
57564;DHT22;43400;45.926;6.724;2022-11-25T00:58:41;5.50;98.80
57564;DHT22;43400;45.926;6.724;2022-11-25T01:01:13;5.50;97.90
57564;DHT22;43400;45.926;6.724;2022-11-25T01:03:48;5.60;97.30
57564;DHT22;43400;45.926;6.724;2022-11-25T01:06:20;5.60;97.10
57564;DHT22;43400;45.926;6.724;2022-11-25T01:08:52;5.60;97.20
57564;DHT22;43400;45.926;6.724;2022-11-25T01:11:28;5.60;97.70
57564;DHT22;43400;45.926;6.724;2022-11-25T01:14:00;5.50;97.90
57564;DHT22;43400;45.926;6.724;2022-11-25T01:16:31;5.50;97.00
57564;DHT22;43400;45.926;6.724;2022-11-25T01:19:03;5.60;96.70
57564;DHT22;43400;45.926;6.724;2022-11-25T01:21:35;5.50;97.40
57564;DHT22;43400;45.926;6.724;2022-11-25T01:24:09;5.40;98.70
57564;DHT22;43400;45.926;6.724;2022-11-25T01:26:43;5.50;99.70
57564;DHT22;43400;45.926;6.724;2022-11-25T01:29:17;5.40;99.60
57564;DHT22;43400;45.926;6.724;2022-11-25T01:31:49;5.50;99.30
57564;DHT22;43400;45.926;6.724;2022-11-25T01:34:23;5.50;98.70
57564;DHT22;43400;45.926;6.724;2022-11-25T01:36:54;5.60;97.70
57564;DHT22;43400;45.926;6.724;2022-11-25T01:39:26;5.60;98.00
57564;DHT22;43400;45.926;6.724;2022-11-25T01:41:58;5.60;97.70
57564;DHT22;43400;45.926;6.724;2022-11-25T01:44:31;5.60;98.20
57564;DHT22;43400;45.926;6.724;2022-11-25T01:47:10;5.60;96.90
57564;DHT22;43400;45.926;6.724;2022-11-25T01:49:52;5.70;97.00
57564;DHT22;43400;45.926;6.724;2022-11-25T01:52:32;5.70;96.60
57564;DHT22;43400;45.926;6.724;2022-11-25T01:58:13;5.70;95.80
57564;DHT22;43400;45.926;6.724;2022-11-25T02:00:46;5.70;95.70
57564;DHT22;43400;45.926;6.724;2022-11-25T02:03:25;5.70;95.50
57564;DHT22;43400;45.926;6.724;2022-11-25T02:08:43;5.80;94.70
57564;DHT22;43400;45.926;6.724;2022-11-25T02:11:18;5.70;95.90
57564;DHT22;43400;45.926;6.724;2022-11-25T02:13:51;5.70;96.60
57564;DHT22;43400;45.926;6.724;2022-11-25T02:16:23;5.70;96.30
57564;DHT22;43400;45.926;6.724;2022-11-25T02:18:55;5.80;95.90
57564;DHT22;43400;45.926;6.724;2022-11-25T02:21:35;5.80;95.20
57564;DHT22;43400;45.926;6.724;2022-11-25T02:24:19;5.80;95.80
57564;DHT22;43400;45.926;6.724;2022-11-25T02:26:52;5.80;96.40
57564;DHT22;43400;45.926;6.724;2022-11-25T02:29:25;5.80;95.80
57564;DHT22;43400;45.926;6.724;2022-11-25T02:31:57;5.80;96.00
57564;DHT22;43400;45.926;6.724;2022-11-25T02:34:29;5.70;95.80
57564;DHT22;43400;45.926;6.724;2022-11-25T02:37:00;5.70;95.90
57564;DHT22;43400;45.926;6.724;2022-11-25T02:39:32;5.70;96.10
57564;DHT22;43400;45.926;6.724;2022-11-25T02:42:04;5.70;96.00
57564;DHT22;43400;45.926;6.724;2022-11-25T02:44:35;5.80;95.80
57564;DHT22;43400;45.926;6.724;2022-11-25T02:47:07;5.80;95.90
57564;DHT22;43400;45.926;6.724;2022-11-25T02:49:38;5.80;96.70
57564;DHT22;43400;45.926;6.724;2022-11-25T02:52:10;5.70;97.20
57564;DHT22;43400;45.926;6.724;2022-11-25T02:54:42;5.80;96.90
57564;DHT22;43400;45.926;6.724;2022-11-25T02:57:13;5.80;96.50
57564;DHT22;43400;45.926;6.724;2022-11-25T02:59:45;5.80;96.90
57564;DHT22;43400;45.926;6.724;2022-11-25T03:02:17;5.70;97.00
57564;DHT22;43400;45.926;6.724;2022-11-25T03:04:48;5.70;96.60
57564;DHT22;43400;45.926;6.724;2022-11-25T03:07:20;5.70;96.70
57564;DHT22;43400;45.926;6.724;2022-11-25T03:09:51;5.70;96.80
57564;DHT22;43400;45.926;6.724;2022-11-25T03:12:23;5.70;96.70
57564;DHT22;43400;45.926;6.724;2022-11-25T03:14:55;5.70;96.30
57564;DHT22;43400;45.926;6.724;2022-11-25T03:17:26;5.80;96.10
57564;DHT22;43400;45.926;6.724;2022-11-25T03:19:58;5.80;96.20
57564;DHT22;43400;45.926;6.724;2022-11-25T03:22:29;5.70;96.60
57564;DHT22;43400;45.926;6.724;2022-11-25T03:25:01;5.70;96.50
57564;DHT22;43400;45.926;6.724;2022-11-25T03:27:33;5.70;96.60
57564;DHT22;43400;45.926;6.724;2022-11-25T03:30:07;5.70;96.30
57564;DHT22;43400;45.926;6.724;2022-11-25T03:32:40;5.70;96.70
57564;DHT22;43400;45.926;6.724;2022-11-25T03:35:11;5.70;96.90
57564;DHT22;43400;45.926;6.724;2022-11-25T03:37:44;5.70;97.00
57564;DHT22;43400;45.926;6.724;2022-11-25T03:40:16;5.70;96.60
57564;DHT22;43400;45.926;6.724;2022-11-25T03:42:48;5.70;96.60
57564;DHT22;43400;45.926;6.724;2022-11-25T03:45:20;5.80;96.20
57564;DHT22;43400;45.926;6.724;2022-11-25T03:47:51;5.80;96.50
57564;DHT22;43400;45.926;6.724;2022-11-25T03:50:23;5.70;96.60
57564;DHT22;43400;45.926;6.724;2022-11-25T03:52:54;5.70;96.50
57564;DHT22;43400;45.926;6.724;2022-11-25T03:55:26;5.70;96.50
57564;DHT22;43400;45.926;6.724;2022-11-25T03:57:57;5.70;96.40
57564;DHT22;43400;45.926;6.724;2022-11-25T04:00:29;5.60;97.00
57564;DHT22;43400;45.926;6.724;2022-11-25T04:03:00;5.60;97.00
57564;DHT22;43400;45.926;6.724;2022-11-25T04:05:32;5.60;97.10
57564;DHT22;43400;45.926;6.724;2022-11-25T04:08:04;5.60;98.20
57564;DHT22;43400;45.926;6.724;2022-11-25T04:10:36;5.50;98.30
57564;DHT22;43400;45.926;6.724;2022-11-25T04:13:07;5.50;98.60
57564;DHT22;43400;45.926;6.724;2022-11-25T04:15:46;5.50;98.30
57564;DHT22;43400;45.926;6.724;2022-11-25T04:18:18;5.40;99.60
57564;DHT22;43400;45.926;6.724;2022-11-25T04:20:51;5.40;99.90
57564;DHT22;43400;45.926;6.724;2022-11-25T04:23:22;5.40;99.90
57564;DHT22;43400;45.926;6.724;2022-11-25T04:25:54;5.40;99.90
57564;DHT22;43400;45.926;6.724;2022-11-25T04:28:25;5.40;99.90
57564;DHT22;43400;45.926;6.724;2022-11-25T04:30:57;5.40;99.90
57564;DHT22;43400;45.926;6.724;2022-11-25T04:33:28;5.40;99.90
57564;DHT22;43400;45.926;6.724;2022-11-25T04:36:00;5.40;99.90
57564;DHT22;43400;45.926;6.724;2022-11-25T04:38:32;5.30;99.10
57564;DHT22;43400;45.926;6.724;2022-11-25T04:41:03;5.40;99.10
57564;DHT22;43400;45.926;6.724;2022-11-25T04:43:35;5.40;98.90
57564;DHT22;43400;45.926;6.724;2022-11-25T04:46:08;5.40;98.60
57564;DHT22;43400;45.926;6.724;2022-11-25T04:48:40;5.30;98.60
57564;DHT22;43400;45.926;6.724;2022-11-25T04:51:11;5.20;98.90
57564;DHT22;43400;45.926;6.724;2022-11-25T04:53:43;5.10;99.80
57564;DHT22;43400;45.926;6.724;2022-11-25T04:56:17;5.00;99.90
57564;DHT22;43400;45.926;6.724;2022-11-25T04:58:49;5.00;99.90
57564;DHT22;43400;45.926;6.724;2022-11-25T05:01:20;5.00;99.90
57564;DHT22;43400;45.926;6.724;2022-11-25T05:03:52;5.00;99.90
57564;DHT22;43400;45.926;6.724;2022-11-25T05:06:24;4.80;99.90
57564;DHT22;43400;45.926;6.724;2022-11-25T05:08:55;4.80;99.90
57564;DHT22;43400;45.926;6.724;2022-11-25T05:11:27;4.80;99.90
57564;DHT22;43400;45.926;6.724;2022-11-25T05:13:58;4.70;99.90
57564;DHT22;43400;45.926;6.724;2022-11-25T05:16:30;4.60;99.90
57564;DHT22;43400;45.926;6.724;2022-11-25T05:19:02;4.50;99.90
57564;DHT22;43400;45.926;6.724;2022-11-25T05:21:33;4.50;99.90
57564;DHT22;43400;45.926;6.724;2022-11-25T05:24:05;4.50;99.90
57564;DHT22;43400;45.926;6.724;2022-11-25T05:26:36;4.40;99.90
57564;DHT22;43400;45.926;6.724;2022-11-25T05:29:09;4.30;99.90
57564;DHT22;43400;45.926;6.724;2022-11-25T05:31:40;4.20;99.90
57564;DHT22;43400;45.926;6.724;2022-11-25T05:34:12;4.20;99.90
57564;DHT22;43400;45.926;6.724;2022-11-25T05:36:43;4.10;99.90
57564;DHT22;43400;45.926;6.724;2022-11-25T05:39:15;4.00;99.90
57564;DHT22;43400;45.926;6.724;2022-11-25T05:41:47;4.00;99.90
57564;DHT22;43400;45.926;6.724;2022-11-25T05:44:18;3.90;99.90
57564;DHT22;43400;45.926;6.724;2022-11-25T05:46:50;3.90;99.90
57564;DHT22;43400;45.926;6.724;2022-11-25T05:49:22;3.90;99.90
57564;DHT22;43400;45.926;6.724;2022-11-25T05:51:53;3.90;99.90
57564;DHT22;43400;45.926;6.724;2022-11-25T05:54:25;3.90;99.90
57564;DHT22;43400;45.926;6.724;2022-11-25T05:56:57;3.90;99.90
57564;DHT22;43400;45.926;6.724;2022-11-25T05:59:29;3.90;99.90
57564;DHT22;43400;45.926;6.724;2022-11-25T06:02:00;3.90;99.90
57564;DHT22;43400;45.926;6.724;2022-11-25T06:04:32;3.90;99.90
57564;DHT22;43400;45.926;6.724;2022-11-25T06:07:03;3.90;99.90
57564;DHT22;43400;45.926;6.724;2022-11-25T06:09:35;3.90;99.90
57564;DHT22;43400;45.926;6.724;2022-11-25T06:12:07;3.90;99.90
57564;DHT22;43400;45.926;6.724;2022-11-25T06:14:38;3.90;99.90
57564;DHT22;43400;45.926;6.724;2022-11-25T06:17:10;3.90;99.90
57564;DHT22;43400;45.926;6.724;2022-11-25T06:19:41;3.90;99.90
57564;DHT22;43400;45.926;6.724;2022-11-25T06:22:13;3.90;99.90
57564;DHT22;43400;45.926;6.724;2022-11-25T06:24:44;3.90;99.90
57564;DHT22;43400;45.926;6.724;2022-11-25T06:27:16;3.80;99.90
57564;DHT22;43400;45.926;6.724;2022-11-25T06:29:48;3.80;99.90
57564;DHT22;43400;45.926;6.724;2022-11-25T06:32:19;3.80;99.90
57564;DHT22;43400;45.926;6.724;2022-11-25T06:34:51;3.70;99.90
57564;DHT22;43400;45.926;6.724;2022-11-25T06:37:22;3.80;99.90
57564;DHT22;43400;45.926;6.724;2022-11-25T06:39:54;3.80;99.90
57564;DHT22;43400;45.926;6.724;2022-11-25T06:42:26;3.80;99.90
57564;DHT22;43400;45.926;6.724;2022-11-25T06:44:58;3.80;99.90
57564;DHT22;43400;45.926;6.724;2022-11-25T06:47:30;3.80;99.90
57564;DHT22;43400;45.926;6.724;2022-11-25T06:50:01;3.70;99.90
57564;DHT22;43400;45.926;6.724;2022-11-25T06:52:33;3.70;99.90
57564;DHT22;43400;45.926;6.724;2022-11-25T06:55:05;3.60;99.90
57564;DHT22;43400;45.926;6.724;2022-11-25T06:57:36;3.50;99.90
57564;DHT22;43400;45.926;6.724;2022-11-25T07:00:08;3.50;99.90
57564;DHT22;43400;45.926;6.724;2022-11-25T07:02:40;3.50;99.90
57564;DHT22;43400;45.926;6.724;2022-11-25T07:05:11;3.50;99.90
57564;DHT22;43400;45.926;6.724;2022-11-25T07:07:43;3.50;99.90
57564;DHT22;43400;45.926;6.724;2022-11-25T07:10:15;3.60;99.90
57564;DHT22;43400;45.926;6.724;2022-11-25T07:12:46;3.60;99.90
57564;DHT22;43400;45.926;6.724;2022-11-25T07:15:18;3.60;99.90
57564;DHT22;43400;45.926;6.724;2022-11-25T07:17:49;3.60;99.90
57564;DHT22;43400;45.926;6.724;2022-11-25T07:20:21;3.70;99.90
57564;DHT22;43400;45.926;6.724;2022-11-25T07:22:52;3.80;99.90
57564;DHT22;43400;45.926;6.724;2022-11-25T07:25:24;3.70;99.90
57564;DHT22;43400;45.926;6.724;2022-11-25T07:27:56;3.70;99.90
57564;DHT22;43400;45.926;6.724;2022-11-25T07:30:27;3.70;99.90
57564;DHT22;43400;45.926;6.724;2022-11-25T07:32:59;3.80;99.90
57564;DHT22;43400;45.926;6.724;2022-11-25T07:35:30;3.90;99.90
57564;DHT22;43400;45.926;6.724;2022-11-25T07:38:02;3.90;99.90
57564;DHT22;43400;45.926;6.724;2022-11-25T07:40:33;3.90;99.90
57564;DHT22;43400;45.926;6.724;2022-11-25T07:43:05;3.90;99.90
57564;DHT22;43400;45.926;6.724;2022-11-25T07:45:36;3.90;99.90
57564;DHT22;43400;45.926;6.724;2022-11-25T07:48:08;3.90;99.90
57564;DHT22;43400;45.926;6.724;2022-11-25T07:50:39;4.00;99.90
57564;DHT22;43400;45.926;6.724;2022-11-25T07:53:11;4.00;99.90
57564;DHT22;43400;45.926;6.724;2022-11-25T07:55:42;4.10;99.90
57564;DHT22;43400;45.926;6.724;2022-11-25T07:58:14;4.20;99.90
57564;DHT22;43400;45.926;6.724;2022-11-25T08:00:45;4.20;99.90
57564;DHT22;43400;45.926;6.724;2022-11-25T08:03:17;4.30;99.90
57564;DHT22;43400;45.926;6.724;2022-11-25T08:05:48;4.40;99.90
57564;DHT22;43400;45.926;6.724;2022-11-25T08:08:20;4.40;99.90
57564;DHT22;43400;45.926;6.724;2022-11-25T08:10:51;4.40;99.90
57564;DHT22;43400;45.926;6.724;2022-11-25T08:13:23;4.40;99.90
57564;DHT22;43400;45.926;6.724;2022-11-25T08:15:58;4.40;99.90
57564;DHT22;43400;45.926;6.724;2022-11-25T08:18:30;4.40;99.90
57564;DHT22;43400;45.926;6.724;2022-11-25T08:21:04;4.40;99.90
57564;DHT22;43400;45.926;6.724;2022-11-25T08:23:37;4.40;99.90
57564;DHT22;43400;45.926;6.724;2022-11-25T08:26:16;4.40;99.90
57564;DHT22;43400;45.926;6.724;2022-11-25T08:28:48;4.50;99.90
57564;DHT22;43400;45.926;6.724;2022-11-25T08:31:23;4.60;99.90
57564;DHT22;43400;45.926;6.724;2022-11-25T08:33:55;4.70;99.90
57564;DHT22;43400;45.926;6.724;2022-11-25T08:36:28;4.70;99.90
57564;DHT22;43400;45.926;6.724;2022-11-25T08:39:04;4.70;99.90
57564;DHT22;43400;45.926;6.724;2022-11-25T08:41:36;4.70;99.90
57564;DHT22;43400;45.926;6.724;2022-11-25T08:44:09;4.80;99.90
57564;DHT22;43400;45.926;6.724;2022-11-25T08:46:41;4.80;98.90
57564;DHT22;43400;45.926;6.724;2022-11-25T08:49:13;4.90;97.70
57564;DHT22;43400;45.926;6.724;2022-11-25T08:51:45;4.90;97.70
57564;DHT22;43400;45.926;6.724;2022-11-25T08:54:16;5.00;96.90
57564;DHT22;43400;45.926;6.724;2022-11-25T08:56:48;5.00;97.20
57564;DHT22;43400;45.926;6.724;2022-11-25T08:59:19;5.10;97.30
57564;DHT22;43400;45.926;6.724;2022-11-25T09:01:51;5.20;97.60
57564;DHT22;43400;45.926;6.724;2022-11-25T09:04:23;5.30;97.50
57564;DHT22;43400;45.926;6.724;2022-11-25T09:06:54;5.30;96.80
57564;DHT22;43400;45.926;6.724;2022-11-25T09:09:26;5.30;96.70
57564;DHT22;43400;45.926;6.724;2022-11-25T09:11:57;5.40;96.60
57564;DHT22;43400;45.926;6.724;2022-11-25T09:14:29;5.30;96.90
57564;DHT22;43400;45.926;6.724;2022-11-25T09:17:00;5.10;97.20
57564;DHT22;43400;45.926;6.724;2022-11-25T09:19:32;5.10;98.00
57564;DHT22;43400;45.926;6.724;2022-11-25T09:22:04;5.00;97.80
57564;DHT22;43400;45.926;6.724;2022-11-25T09:24:36;5.10;97.80
57564;DHT22;43400;45.926;6.724;2022-11-25T09:27:07;5.10;97.40
57564;DHT22;43400;45.926;6.724;2022-11-25T09:29:39;5.20;97.60
57564;DHT22;43400;45.926;6.724;2022-11-25T09:32:10;5.40;96.80
57564;DHT22;43400;45.926;6.724;2022-11-25T09:34:42;5.70;97.50
57564;DHT22;43400;45.926;6.724;2022-11-25T09:37:14;6.00;97.50
57564;DHT22;43400;45.926;6.724;2022-11-25T09:39:45;6.20;96.80
57564;DHT22;43400;45.926;6.724;2022-11-25T09:42:50;6.50;96.80
57564;DHT22;43400;45.926;6.724;2022-11-25T09:45:37;6.80;96.60
57564;DHT22;43400;45.926;6.724;2022-11-25T09:51:40;7.50;94.70
57564;DHT22;43400;45.926;6.724;2022-11-25T09:54:28;8.10;93.80
57564;DHT22;43400;45.926;6.724;2022-11-25T09:59:49;9.10;84.80
57564;DHT22;43400;45.926;6.724;2022-11-25T10:05:53;9.50;87.80
57564;DHT22;43400;45.926;6.724;2022-11-25T10:08:37;10.00;86.30
57564;DHT22;43400;45.926;6.724;2022-11-25T10:16:54;10.70;74.50
57564;DHT22;43400;45.926;6.724;2022-11-25T10:22:36;14.90;58.90
57564;DHT22;43400;45.926;6.724;2022-11-25T10:25:17;17.50;53.50
57564;DHT22;43400;45.926;6.724;2022-11-25T10:31:52;19.80;46.30
57564;DHT22;43400;45.926;6.724;2022-11-25T10:34:39;21.50;45.10
57564;DHT22;43400;45.926;6.724;2022-11-25T10:37:25;22.20;42.40
57564;DHT22;43400;45.926;6.724;2022-11-25T10:39:57;23.10;40.70
57564;DHT22;43400;45.926;6.724;2022-11-25T10:42:29;23.40;38.70
57564;DHT22;43400;45.926;6.724;2022-11-25T10:45:01;23.80;38.50
57564;DHT22;43400;45.926;6.724;2022-11-25T10:47:34;23.80;39.80
57564;DHT22;43400;45.926;6.724;2022-11-25T10:55:22;24.00;38.10
57564;DHT22;43400;45.926;6.724;2022-11-25T10:57:55;23.50;38.10
57564;DHT22;43400;45.926;6.724;2022-11-25T11:00:35;24.50;36.80
57564;DHT22;43400;45.926;6.724;2022-11-25T11:03:24;25.00;36.70
57564;DHT22;43400;45.926;6.724;2022-11-25T11:05:56;25.20;36.90
57564;DHT22;43400;45.926;6.724;2022-11-25T11:08:39;26.10;36.90
57564;DHT22;43400;45.926;6.724;2022-11-25T11:11:16;26.60;37.10
57564;DHT22;43400;45.926;6.724;2022-11-25T11:13:49;26.40;35.80
57564;DHT22;43400;45.926;6.724;2022-11-25T11:16:37;25.80;35.90
57564;DHT22;43400;45.926;6.724;2022-11-25T11:19:23;26.20;34.90
57564;DHT22;43400;45.926;6.724;2022-11-25T11:21:57;25.00;34.30
57564;DHT22;43400;45.926;6.724;2022-11-25T11:24:44;24.60;35.30
57564;DHT22;43400;45.926;6.724;2022-11-25T11:27:23;24.60;36.00
57564;DHT22;43400;45.926;6.724;2022-11-25T11:30:21;24.60;35.70
57564;DHT22;43400;45.926;6.724;2022-11-25T11:33:08;25.10;35.40
57564;DHT22;43400;45.926;6.724;2022-11-25T11:36:00;24.40;35.30
57564;DHT22;43400;45.926;6.724;2022-11-25T11:38:38;24.60;35.20
57564;DHT22;43400;45.926;6.724;2022-11-25T11:41:33;24.40;35.70
57564;DHT22;43400;45.926;6.724;2022-11-25T11:53:17;20.40;40.30
57564;DHT22;43400;45.926;6.724;2022-11-25T11:56:16;19.30;41.80
57564;DHT22;43400;45.926;6.724;2022-11-25T11:59:00;18.90;43.70
57564;DHT22;43400;45.926;6.724;2022-11-25T12:04:30;21.10;40.80
57564;DHT22;43400;45.926;6.724;2022-11-25T12:15:54;23.40;38.60
57564;DHT22;43400;45.926;6.724;2022-11-25T12:18:40;21.90;39.10
57564;DHT22;43400;45.926;6.724;2022-11-25T12:27:00;19.70;41.30
57564;DHT22;43400;45.926;6.724;2022-11-25T12:32:55;17.80;43.10
57564;DHT22;43400;45.926;6.724;2022-11-25T12:38:35;16.70;47.70
57564;DHT22;43400;45.926;6.724;2022-11-25T12:41:31;16.50;48.40
57564;DHT22;43400;45.926;6.724;2022-11-25T12:46:58;16.10;48.00
57564;DHT22;43400;45.926;6.724;2022-11-25T12:49:32;16.00;48.90
57564;DHT22;43400;45.926;6.724;2022-11-25T13:12:10;14.70;53.00
57564;DHT22;43400;45.926;6.724;2022-11-25T13:17:44;14.80;55.50
57564;DHT22;43400;45.926;6.724;2022-11-25T13:20:30;14.50;54.90
57564;DHT22;43400;45.926;6.724;2022-11-25T13:25:41;14.10;56.00
57564;DHT22;43400;45.926;6.724;2022-11-25T13:36:22;13.80;58.00
57564;DHT22;43400;45.926;6.724;2022-11-25T13:41:36;13.60;58.60
57564;DHT22;43400;45.926;6.724;2022-11-25T13:47:37;13.20;61.30
57564;DHT22;43400;45.926;6.724;2022-11-25T13:53:07;12.60;64.00
57564;DHT22;43400;45.926;6.724;2022-11-25T13:55:48;12.40;65.10
57564;DHT22;43400;45.926;6.724;2022-11-25T13:58:27;12.30;66.40
57564;DHT22;43400;45.926;6.724;2022-11-25T14:01:25;12.10;66.90
57564;DHT22;43400;45.926;6.724;2022-11-25T14:03:57;12.10;67.50
57564;DHT22;43400;45.926;6.724;2022-11-25T14:12:29;11.70;69.40
57564;DHT22;43400;45.926;6.724;2022-11-25T14:15:37;11.60;70.40
57564;DHT22;43400;45.926;6.724;2022-11-25T14:21:43;11.50;70.80
57564;DHT22;43400;45.926;6.724;2022-11-25T14:25:18;11.50;72.10
57564;DHT22;43400;45.926;6.724;2022-11-25T14:27:57;11.40;72.40
57564;DHT22;43400;45.926;6.724;2022-11-25T14:30:31;11.20;73.10
57564;DHT22;43400;45.926;6.724;2022-11-25T14:33:08;11.20;73.80
57564;DHT22;43400;45.926;6.724;2022-11-25T14:35:45;11.20;74.10
57564;DHT22;43400;45.926;6.724;2022-11-25T14:38:22;11.20;74.90
57564;DHT22;43400;45.926;6.724;2022-11-25T14:44:19;11.10;75.90
57564;DHT22;43400;45.926;6.724;2022-11-25T14:46:56;11.00;76.20
57564;DHT22;43400;45.926;6.724;2022-11-25T14:49:48;11.00;76.60
57564;DHT22;43400;45.926;6.724;2022-11-25T14:52:27;10.80;78.70
57564;DHT22;43400;45.926;6.724;2022-11-25T14:55:02;10.70;80.50
57564;DHT22;43400;45.926;6.724;2022-11-25T14:57:40;10.70;81.70
57564;DHT22;43400;45.926;6.724;2022-11-25T15:00:15;10.50;82.50
57564;DHT22;43400;45.926;6.724;2022-11-25T15:05:25;10.50;85.10
57564;DHT22;43400;45.926;6.724;2022-11-25T15:10:49;10.50;87.50
57564;DHT22;43400;45.926;6.724;2022-11-25T15:16:07;10.40;87.10
57564;DHT22;43400;45.926;6.724;2022-11-25T15:18:55;10.50;86.20
57564;DHT22;43400;45.926;6.724;2022-11-25T15:21:33;10.40;87.80
57564;DHT22;43400;45.926;6.724;2022-11-25T15:24:05;10.40;86.70
57564;DHT22;43400;45.926;6.724;2022-11-25T15:26:37;10.40;87.80
57564;DHT22;43400;45.926;6.724;2022-11-25T15:29:12;10.10;90.40
57564;DHT22;43400;45.926;6.724;2022-11-25T15:31:45;10.10;90.50
57564;DHT22;43400;45.926;6.724;2022-11-25T15:34:19;10.00;89.10
57564;DHT22;43400;45.926;6.724;2022-11-25T15:36:51;9.90;90.70
57564;DHT22;43400;45.926;6.724;2022-11-25T15:39:25;9.90;89.80
57564;DHT22;43400;45.926;6.724;2022-11-25T15:44:52;9.90;87.00
57564;DHT22;43400;45.926;6.724;2022-11-25T15:47:31;9.90;88.60
57564;DHT22;43400;45.926;6.724;2022-11-25T15:50:15;9.90;87.90
57564;DHT22;43400;45.926;6.724;2022-11-25T15:52:51;9.80;87.90
57564;DHT22;43400;45.926;6.724;2022-11-25T15:55:34;9.90;88.30
57564;DHT22;43400;45.926;6.724;2022-11-25T15:58:13;9.80;88.00
57564;DHT22;43400;45.926;6.724;2022-11-25T16:03:34;9.80;88.80
57564;DHT22;43400;45.926;6.724;2022-11-25T16:08:55;9.60;90.00
57564;DHT22;43400;45.926;6.724;2022-11-25T16:11:28;9.60;90.00
57564;DHT22;43400;45.926;6.724;2022-11-25T16:14:27;9.60;90.00
57564;DHT22;43400;45.926;6.724;2022-11-25T16:17:07;9.60;90.10
57564;DHT22;43400;45.926;6.724;2022-11-25T16:19:45;9.50;90.00
57564;DHT22;43400;45.926;6.724;2022-11-25T16:22:19;9.50;90.40
57564;DHT22;43400;45.926;6.724;2022-11-25T16:24:52;9.40;90.80
57564;DHT22;43400;45.926;6.724;2022-11-25T16:27:26;9.30;91.30
57564;DHT22;43400;45.926;6.724;2022-11-25T16:32:35;9.10;93.20
57564;DHT22;43400;45.926;6.724;2022-11-25T16:35:15;9.10;93.90
57564;DHT22;43400;45.926;6.724;2022-11-25T16:37:48;9.00;94.80
57564;DHT22;43400;45.926;6.724;2022-11-25T16:40:19;8.90;96.10
57564;DHT22;43400;45.926;6.724;2022-11-25T16:42:51;8.90;97.10
57564;DHT22;43400;45.926;6.724;2022-11-25T16:45:25;8.80;98.80
57564;DHT22;43400;45.926;6.724;2022-11-25T16:47:58;8.80;99.90
57564;DHT22;43400;45.926;6.724;2022-11-25T16:50:29;8.80;99.90
57564;DHT22;43400;45.926;6.724;2022-11-25T16:53:01;8.80;99.90
57564;DHT22;43400;45.926;6.724;2022-11-25T16:55:32;8.70;99.90
57564;DHT22;43400;45.926;6.724;2022-11-25T16:58:14;8.70;99.90
57564;DHT22;43400;45.926;6.724;2022-11-25T17:00:50;8.60;99.90
57564;DHT22;43400;45.926;6.724;2022-11-25T17:03:23;8.60;99.90
57564;DHT22;43400;45.926;6.724;2022-11-25T17:05:54;8.60;99.90
57564;DHT22;43400;45.926;6.724;2022-11-25T17:08:26;8.60;99.90
57564;DHT22;43400;45.926;6.724;2022-11-25T17:10:58;8.60;99.90
57564;DHT22;43400;45.926;6.724;2022-11-25T17:13:30;8.60;99.90
57564;DHT22;43400;45.926;6.724;2022-11-25T17:16:02;8.60;99.90
57564;DHT22;43400;45.926;6.724;2022-11-25T17:18:34;8.50;99.90
57564;DHT22;43400;45.926;6.724;2022-11-25T17:21:07;8.60;99.90
57564;DHT22;43400;45.926;6.724;2022-11-25T17:23:40;8.50;99.90
57564;DHT22;43400;45.926;6.724;2022-11-25T17:26:45;8.50;99.90
57564;DHT22;43400;45.926;6.724;2022-11-25T17:29:18;8.50;99.90
57564;DHT22;43400;45.926;6.724;2022-11-25T17:31:50;8.40;99.90
57564;DHT22;43400;45.926;6.724;2022-11-25T17:34:22;8.50;99.90
57564;DHT22;43400;45.926;6.724;2022-11-25T17:36:54;8.40;99.90
57564;DHT22;43400;45.926;6.724;2022-11-25T17:39:26;8.40;99.90
57564;DHT22;43400;45.926;6.724;2022-11-25T17:41:57;8.40;99.90
57564;DHT22;43400;45.926;6.724;2022-11-25T17:44:29;8.30;99.90
57564;DHT22;43400;45.926;6.724;2022-11-25T17:47:00;8.20;99.90
57564;DHT22;43400;45.926;6.724;2022-11-25T17:49:32;8.20;99.90
57564;DHT22;43400;45.926;6.724;2022-11-25T17:52:03;8.20;99.90
57564;DHT22;43400;45.926;6.724;2022-11-25T17:54:35;8.20;99.90
57564;DHT22;43400;45.926;6.724;2022-11-25T17:57:11;8.20;99.90
57564;DHT22;43400;45.926;6.724;2022-11-25T17:59:44;8.20;99.90
57564;DHT22;43400;45.926;6.724;2022-11-25T18:02:20;8.20;99.90
57564;DHT22;43400;45.926;6.724;2022-11-25T18:04:52;8.20;99.90
57564;DHT22;43400;45.926;6.724;2022-11-25T18:07:23;8.10;99.90
57564;DHT22;43400;45.926;6.724;2022-11-25T18:09:55;8.10;99.90
57564;DHT22;43400;45.926;6.724;2022-11-25T18:12:28;8.10;99.90
57564;DHT22;43400;45.926;6.724;2022-11-25T18:15:00;8.10;99.90
57564;DHT22;43400;45.926;6.724;2022-11-25T18:17:31;8.10;99.90
57564;DHT22;43400;45.926;6.724;2022-11-25T18:20:18;8.00;99.90
57564;DHT22;43400;45.926;6.724;2022-11-25T18:22:51;8.00;99.90
57564;DHT22;43400;45.926;6.724;2022-11-25T18:25:26;8.00;99.90
57564;DHT22;43400;45.926;6.724;2022-11-25T18:27:59;7.90;99.90
57564;DHT22;43400;45.926;6.724;2022-11-25T18:30:33;7.90;99.90
57564;DHT22;43400;45.926;6.724;2022-11-25T18:33:12;7.80;99.90
57564;DHT22;43400;45.926;6.724;2022-11-25T18:35:45;7.80;99.90
57564;DHT22;43400;45.926;6.724;2022-11-25T18:38:17;7.70;99.90
57564;DHT22;43400;45.926;6.724;2022-11-25T18:40:49;7.60;99.90
57564;DHT22;43400;45.926;6.724;2022-11-25T18:43:22;7.70;99.90
57564;DHT22;43400;45.926;6.724;2022-11-25T18:45:55;7.60;99.90
57564;DHT22;43400;45.926;6.724;2022-11-25T18:48:27;7.60;99.90
57564;DHT22;43400;45.926;6.724;2022-11-25T18:50:58;7.60;99.90